sensor_id;sensor_type;location;lat;lon;timestamp;P1;durP1;ratioP1;P2;durP2;ratioP2
68976;SDS011;56029;52.568;13.588;2023-03-23T00:01:06;4.23;;;2.40;;
68976;SDS011;56029;52.568;13.588;2023-03-23T00:03:35;6.65;;;2.72;;
68976;SDS011;56029;52.568;13.588;2023-03-23T00:06:01;4.78;;;2.70;;
68976;SDS011;56029;52.568;13.588;2023-03-23T00:08:36;5.30;;;2.60;;
68976;SDS011;56029;52.568;13.588;2023-03-23T00:11:11;5.95;;;2.65;;
68976;SDS011;56029;52.568;13.588;2023-03-23T00:13:40;7.67;;;3.20;;
68976;SDS011;56029;52.568;13.588;2023-03-23T00:16:07;4.60;;;2.80;;
68976;SDS011;56029;52.568;13.588;2023-03-23T00:18:43;4.93;;;2.70;;
68976;SDS011;56029;52.568;13.588;2023-03-23T00:21:13;4.97;;;2.65;;
68976;SDS011;56029;52.568;13.588;2023-03-23T00:23:38;6.00;;;2.73;;
68976;SDS011;56029;52.568;13.588;2023-03-23T00:26:05;6.15;;;3.00;;
68976;SDS011;56029;52.568;13.588;2023-03-23T00:28:31;4.82;;;2.85;;
68976;SDS011;56029;52.568;13.588;2023-03-23T00:31:02;7.15;;;3.45;;
68976;SDS011;56029;52.568;13.588;2023-03-23T00:33:32;5.83;;;2.90;;
68976;SDS011;56029;52.568;13.588;2023-03-23T00:36:09;4.68;;;2.67;;
68976;SDS011;56029;52.568;13.588;2023-03-23T00:38:36;4.40;;;2.60;;
68976;SDS011;56029;52.568;13.588;2023-03-23T00:41:03;4.93;;;2.80;;
68976;SDS011;56029;52.568;13.588;2023-03-23T00:43:29;6.27;;;2.80;;
68976;SDS011;56029;52.568;13.588;2023-03-23T00:45:56;5.38;;;2.60;;
68976;SDS011;56029;52.568;13.588;2023-03-23T00:48:26;5.93;;;2.92;;
68976;SDS011;56029;52.568;13.588;2023-03-23T00:50:54;3.72;;;2.50;;
68976;SDS011;56029;52.568;13.588;2023-03-23T00:53:20;5.10;;;2.97;;
68976;SDS011;56029;52.568;13.588;2023-03-23T00:55:47;5.77;;;2.60;;
68976;SDS011;56029;52.568;13.588;2023-03-23T00:58:14;5.93;;;2.70;;
68976;SDS011;56029;52.568;13.588;2023-03-23T01:00:41;6.43;;;2.90;;
68976;SDS011;56029;52.568;13.588;2023-03-23T01:03:07;6.57;;;2.95;;
68976;SDS011;56029;52.568;13.588;2023-03-23T01:05:38;6.13;;;2.92;;
68976;SDS011;56029;52.568;13.588;2023-03-23T01:08:04;6.63;;;3.20;;
68976;SDS011;56029;52.568;13.588;2023-03-23T01:10:31;4.85;;;2.60;;
68976;SDS011;56029;52.568;13.588;2023-03-23T01:13:00;5.63;;;2.90;;
68976;SDS011;56029;52.568;13.588;2023-03-23T01:15:27;5.65;;;2.92;;
68976;SDS011;56029;52.568;13.588;2023-03-23T01:17:54;4.68;;;2.67;;
68976;SDS011;56029;52.568;13.588;2023-03-23T01:20:21;7.00;;;3.00;;
68976;SDS011;56029;52.568;13.588;2023-03-23T01:22:46;4.97;;;2.90;;
68976;SDS011;56029;52.568;13.588;2023-03-23T01:25:12;6.00;;;3.07;;
68976;SDS011;56029;52.568;13.588;2023-03-23T01:27:38;4.50;;;2.85;;
68976;SDS011;56029;52.568;13.588;2023-03-23T01:30:04;5.07;;;2.83;;
68976;SDS011;56029;52.568;13.588;2023-03-23T01:32:32;7.95;;;2.80;;
68976;SDS011;56029;52.568;13.588;2023-03-23T01:34:57;4.20;;;2.80;;
68976;SDS011;56029;52.568;13.588;2023-03-23T01:37:23;5.38;;;2.78;;
68976;SDS011;56029;52.568;13.588;2023-03-23T01:39:55;7.10;;;2.80;;
68976;SDS011;56029;52.568;13.588;2023-03-23T01:42:22;5.75;;;2.97;;
68976;SDS011;56029;52.568;13.588;2023-03-23T01:47:14;5.10;;;2.72;;
68976;SDS011;56029;52.568;13.588;2023-03-23T01:49:45;4.70;;;2.65;;
68976;SDS011;56029;52.568;13.588;2023-03-23T01:52:13;4.57;;;2.80;;
68976;SDS011;56029;52.568;13.588;2023-03-23T01:54:43;6.22;;;2.90;;
68976;SDS011;56029;52.568;13.588;2023-03-23T01:57:11;5.13;;;2.80;;
68976;SDS011;56029;52.568;13.588;2023-03-23T01:59:39;5.32;;;2.65;;
68976;SDS011;56029;52.568;13.588;2023-03-23T02:02:07;5.13;;;2.78;;
68976;SDS011;56029;52.568;13.588;2023-03-23T02:04:36;5.37;;;3.07;;
68976;SDS011;56029;52.568;13.588;2023-03-23T02:07:02;4.82;;;2.80;;
68976;SDS011;56029;52.568;13.588;2023-03-23T02:09:29;5.68;;;3.08;;
68976;SDS011;56029;52.568;13.588;2023-03-23T02:11:55;5.78;;;2.97;;
68976;SDS011;56029;52.568;13.588;2023-03-23T02:14:21;5.82;;;3.50;;
68976;SDS011;56029;52.568;13.588;2023-03-23T02:16:52;5.30;;;3.07;;
68976;SDS011;56029;52.568;13.588;2023-03-23T02:19:29;6.05;;;3.08;;
68976;SDS011;56029;52.568;13.588;2023-03-23T02:22:20;5.82;;;3.00;;
68976;SDS011;56029;52.568;13.588;2023-03-23T02:25:07;5.03;;;2.90;;
68976;SDS011;56029;52.568;13.588;2023-03-23T02:30:31;5.27;;;3.10;;
68976;SDS011;56029;52.568;13.588;2023-03-23T02:33:14;4.55;;;2.80;;
68976;SDS011;56029;52.568;13.588;2023-03-23T02:35:46;5.30;;;3.08;;
68976;SDS011;56029;52.568;13.588;2023-03-23T02:38:26;5.30;;;2.88;;
68976;SDS011;56029;52.568;13.588;2023-03-23T02:40:56;6.85;;;3.20;;
68976;SDS011;56029;52.568;13.588;2023-03-23T02:43:26;5.53;;;3.07;;
68976;SDS011;56029;52.568;13.588;2023-03-23T02:45:54;5.38;;;2.92;;
68976;SDS011;56029;52.568;13.588;2023-03-23T02:48:22;7.15;;;3.30;;
68976;SDS011;56029;52.568;13.588;2023-03-23T02:50:52;6.60;;;3.45;;
68976;SDS011;56029;52.568;13.588;2023-03-23T02:53:20;6.47;;;3.10;;
68976;SDS011;56029;52.568;13.588;2023-03-23T02:55:48;5.50;;;3.08;;
68976;SDS011;56029;52.568;13.588;2023-03-23T02:58:18;5.00;;;3.10;;
68976;SDS011;56029;52.568;13.588;2023-03-23T03:00:44;5.88;;;2.90;;
68976;SDS011;56029;52.568;13.588;2023-03-23T03:03:13;5.40;;;2.70;;
68976;SDS011;56029;52.568;13.588;2023-03-23T03:05:49;4.97;;;2.80;;
68976;SDS011;56029;52.568;13.588;2023-03-23T03:08:40;6.55;;;3.10;;
68976;SDS011;56029;52.568;13.588;2023-03-23T03:11:14;5.43;;;2.90;;
68976;SDS011;56029;52.568;13.588;2023-03-23T03:17:13;5.03;;;2.85;;
68976;SDS011;56029;52.568;13.588;2023-03-23T03:19:24;4.63;;;2.72;;
68976;SDS011;56029;52.568;13.588;2023-03-23T03:21:54;7.90;;;2.85;;
68976;SDS011;56029;52.568;13.588;2023-03-23T03:24:22;5.00;;;2.85;;
68976;SDS011;56029;52.568;13.588;2023-03-23T03:26:51;4.70;;;2.80;;
68976;SDS011;56029;52.568;13.588;2023-03-23T03:29:22;5.22;;;2.92;;
68976;SDS011;56029;52.568;13.588;2023-03-23T03:31:50;4.32;;;2.80;;
68976;SDS011;56029;52.568;13.588;2023-03-23T03:34:20;4.90;;;2.92;;
68976;SDS011;56029;52.568;13.588;2023-03-23T03:36:47;5.10;;;2.60;;
68976;SDS011;56029;52.568;13.588;2023-03-23T03:39:16;4.90;;;2.83;;
68976;SDS011;56029;52.568;13.588;2023-03-23T03:41:43;5.95;;;3.20;;
68976;SDS011;56029;52.568;13.588;2023-03-23T03:44:09;6.18;;;3.08;;
68976;SDS011;56029;52.568;13.588;2023-03-23T03:46:35;5.93;;;2.90;;
68976;SDS011;56029;52.568;13.588;2023-03-23T03:49:03;6.47;;;2.97;;
68976;SDS011;56029;52.568;13.588;2023-03-23T03:51:30;6.30;;;3.10;;
68976;SDS011;56029;52.568;13.588;2023-03-23T03:53:57;4.10;;;2.70;;
68976;SDS011;56029;52.568;13.588;2023-03-23T03:56:23;6.18;;;2.97;;
68976;SDS011;56029;52.568;13.588;2023-03-23T03:58:49;4.95;;;3.00;;
68976;SDS011;56029;52.568;13.588;2023-03-23T04:01:16;6.30;;;2.95;;
68976;SDS011;56029;52.568;13.588;2023-03-23T04:03:43;4.70;;;2.60;;
68976;SDS011;56029;52.568;13.588;2023-03-23T04:06:10;4.35;;;2.63;;
68976;SDS011;56029;52.568;13.588;2023-03-23T04:08:38;5.63;;;3.25;;
68976;SDS011;56029;52.568;13.588;2023-03-23T04:11:04;4.55;;;2.80;;
68976;SDS011;56029;52.568;13.588;2023-03-23T04:13:30;5.07;;;3.00;;
68976;SDS011;56029;52.568;13.588;2023-03-23T04:15:56;4.93;;;2.88;;
68976;SDS011;56029;52.568;13.588;2023-03-23T04:18:21;5.30;;;3.20;;
68976;SDS011;56029;52.568;13.588;2023-03-23T04:20:48;4.40;;;2.85;;
68976;SDS011;56029;52.568;13.588;2023-03-23T04:23:15;6.75;;;3.30;;
68976;SDS011;56029;52.568;13.588;2023-03-23T04:25:45;5.80;;;2.80;;
68976;SDS011;56029;52.568;13.588;2023-03-23T04:28:12;4.80;;;2.73;;
68976;SDS011;56029;52.568;13.588;2023-03-23T04:30:38;4.68;;;2.63;;
68976;SDS011;56029;52.568;13.588;2023-03-23T04:33:04;4.35;;;2.70;;
68976;SDS011;56029;52.568;13.588;2023-03-23T04:35:29;6.67;;;3.10;;
68976;SDS011;56029;52.568;13.588;2023-03-23T04:37:55;4.80;;;2.90;;
68976;SDS011;56029;52.568;13.588;2023-03-23T04:40:22;5.22;;;3.00;;
68976;SDS011;56029;52.568;13.588;2023-03-23T04:42:48;5.55;;;2.90;;
68976;SDS011;56029;52.568;13.588;2023-03-23T04:45:17;4.90;;;2.80;;
68976;SDS011;56029;52.568;13.588;2023-03-23T04:47:47;5.97;;;3.10;;
68976;SDS011;56029;52.568;13.588;2023-03-23T04:50:23;4.68;;;3.00;;
68976;SDS011;56029;52.568;13.588;2023-03-23T04:52:52;6.75;;;3.20;;
68976;SDS011;56029;52.568;13.588;2023-03-23T04:55:19;5.65;;;3.00;;
68976;SDS011;56029;52.568;13.588;2023-03-23T04:57:46;7.60;;;3.37;;
68976;SDS011;56029;52.568;13.588;2023-03-23T05:00:12;5.63;;;3.10;;
68976;SDS011;56029;52.568;13.588;2023-03-23T05:02:39;5.55;;;3.40;;
68976;SDS011;56029;52.568;13.588;2023-03-23T05:05:07;6.65;;;3.38;;
68976;SDS011;56029;52.568;13.588;2023-03-23T05:07:33;6.80;;;3.03;;
68976;SDS011;56029;52.568;13.588;2023-03-23T05:09:59;5.60;;;3.20;;
68976;SDS011;56029;52.568;13.588;2023-03-23T05:12:25;6.13;;;3.33;;
68976;SDS011;56029;52.568;13.588;2023-03-23T05:14:51;5.90;;;3.40;;
68976;SDS011;56029;52.568;13.588;2023-03-23T05:17:16;6.40;;;3.10;;
68976;SDS011;56029;52.568;13.588;2023-03-23T05:19:44;6.80;;;3.40;;
68976;SDS011;56029;52.568;13.588;2023-03-23T05:22:15;6.05;;;3.20;;
68976;SDS011;56029;52.568;13.588;2023-03-23T05:24:40;7.30;;;3.47;;
68976;SDS011;56029;52.568;13.588;2023-03-23T05:27:08;6.13;;;3.50;;
68976;SDS011;56029;52.568;13.588;2023-03-23T05:29:34;6.00;;;3.33;;
68976;SDS011;56029;52.568;13.588;2023-03-23T05:32:04;7.18;;;3.65;;
68976;SDS011;56029;52.568;13.588;2023-03-23T05:34:31;5.90;;;3.17;;
68976;SDS011;56029;52.568;13.588;2023-03-23T05:37:00;6.75;;;3.50;;
68976;SDS011;56029;52.568;13.588;2023-03-23T05:39:27;6.30;;;3.30;;
68976;SDS011;56029;52.568;13.588;2023-03-23T05:41:53;7.50;;;3.53;;
68976;SDS011;56029;52.568;13.588;2023-03-23T05:44:18;6.72;;;3.60;;
68976;SDS011;56029;52.568;13.588;2023-03-23T05:46:44;6.37;;;3.87;;
68976;SDS011;56029;52.568;13.588;2023-03-23T05:49:10;7.10;;;4.07;;
68976;SDS011;56029;52.568;13.588;2023-03-23T05:51:36;6.28;;;3.72;;
68976;SDS011;56029;52.568;13.588;2023-03-23T05:54:02;7.07;;;3.47;;
68976;SDS011;56029;52.568;13.588;2023-03-23T05:56:28;6.82;;;3.67;;
68976;SDS011;56029;52.568;13.588;2023-03-23T05:58:55;6.43;;;3.42;;
68976;SDS011;56029;52.568;13.588;2023-03-23T06:01:21;6.45;;;3.38;;
68976;SDS011;56029;52.568;13.588;2023-03-23T06:03:47;6.93;;;3.50;;
68976;SDS011;56029;52.568;13.588;2023-03-23T06:06:14;5.95;;;2.80;;
68976;SDS011;56029;52.568;13.588;2023-03-23T06:08:39;7.17;;;3.00;;
68976;SDS011;56029;52.568;13.588;2023-03-23T06:11:05;6.03;;;3.20;;
68976;SDS011;56029;52.568;13.588;2023-03-23T06:13:31;5.90;;;2.80;;
68976;SDS011;56029;52.568;13.588;2023-03-23T06:15:57;5.47;;;2.97;;
68976;SDS011;56029;52.568;13.588;2023-03-23T06:18:23;5.47;;;2.85;;
68976;SDS011;56029;52.568;13.588;2023-03-23T06:20:49;6.23;;;3.07;;
68976;SDS011;56029;52.568;13.588;2023-03-23T06:23:16;5.53;;;2.80;;
68976;SDS011;56029;52.568;13.588;2023-03-23T06:25:42;5.60;;;2.80;;
68976;SDS011;56029;52.568;13.588;2023-03-23T06:28:09;6.07;;;2.63;;
68976;SDS011;56029;52.568;13.588;2023-03-23T06:30:35;5.20;;;2.80;;
68976;SDS011;56029;52.568;13.588;2023-03-23T06:33:02;7.63;;;3.22;;
68976;SDS011;56029;52.568;13.588;2023-03-23T06:37:58;8.07;;;2.58;;
68976;SDS011;56029;52.568;13.588;2023-03-23T06:40:27;6.90;;;2.90;;
68976;SDS011;56029;52.568;13.588;2023-03-23T06:42:53;6.10;;;3.00;;
68976;SDS011;56029;52.568;13.588;2023-03-23T06:45:19;5.70;;;2.50;;
68976;SDS011;56029;52.568;13.588;2023-03-23T06:47:45;5.45;;;2.60;;
68976;SDS011;56029;52.568;13.588;2023-03-23T06:50:14;4.70;;;2.20;;
68976;SDS011;56029;52.568;13.588;2023-03-23T06:52:44;5.80;;;2.50;;
68976;SDS011;56029;52.568;13.588;2023-03-23T06:55:12;7.85;;;2.60;;
68976;SDS011;56029;52.568;13.588;2023-03-23T06:57:38;5.00;;;2.20;;
68976;SDS011;56029;52.568;13.588;2023-03-23T07:00:04;6.35;;;2.40;;
68976;SDS011;56029;52.568;13.588;2023-03-23T07:02:32;5.80;;;2.22;;
68976;SDS011;56029;52.568;13.588;2023-03-23T07:04:58;4.33;;;2.17;;
68976;SDS011;56029;52.568;13.588;2023-03-23T07:07:24;4.33;;;2.07;;
68976;SDS011;56029;52.568;13.588;2023-03-23T07:09:50;4.70;;;2.30;;
68976;SDS011;56029;52.568;13.588;2023-03-23T07:12:15;5.50;;;2.40;;
68976;SDS011;56029;52.568;13.588;2023-03-23T07:14:41;5.03;;;2.13;;
68976;SDS011;56029;52.568;13.588;2023-03-23T07:17:07;6.35;;;2.50;;
68976;SDS011;56029;52.568;13.588;2023-03-23T07:19:33;5.40;;;2.20;;
68976;SDS011;56029;52.568;13.588;2023-03-23T07:21:58;5.28;;;2.60;;
68976;SDS011;56029;52.568;13.588;2023-03-23T07:24:24;5.00;;;2.30;;
68976;SDS011;56029;52.568;13.588;2023-03-23T07:26:50;3.75;;;2.17;;
68976;SDS011;56029;52.568;13.588;2023-03-23T07:29:16;7.25;;;2.50;;
68976;SDS011;56029;52.568;13.588;2023-03-23T07:31:41;4.70;;;2.40;;
68976;SDS011;56029;52.568;13.588;2023-03-23T07:34:07;4.20;;;2.20;;
68976;SDS011;56029;52.568;13.588;2023-03-23T07:36:33;4.65;;;2.40;;
68976;SDS011;56029;52.568;13.588;2023-03-23T07:39:03;4.32;;;2.40;;
68976;SDS011;56029;52.568;13.588;2023-03-23T07:41:31;6.03;;;2.73;;
68976;SDS011;56029;52.568;13.588;2023-03-23T07:43:57;5.35;;;2.30;;
68976;SDS011;56029;52.568;13.588;2023-03-23T07:46:22;4.57;;;2.33;;
68976;SDS011;56029;52.568;13.588;2023-03-23T07:48:48;5.10;;;2.58;;
68976;SDS011;56029;52.568;13.588;2023-03-23T07:51:14;5.77;;;2.30;;
68976;SDS011;56029;52.568;13.588;2023-03-23T07:53:44;5.30;;;2.60;;
68976;SDS011;56029;52.568;13.588;2023-03-23T07:56:10;5.15;;;2.60;;
68976;SDS011;56029;52.568;13.588;2023-03-23T07:58:37;6.32;;;3.00;;
68976;SDS011;56029;52.568;13.588;2023-03-23T08:01:03;5.23;;;2.67;;
68976;SDS011;56029;52.568;13.588;2023-03-23T08:03:29;5.75;;;2.58;;
68976;SDS011;56029;52.568;13.588;2023-03-23T08:05:57;5.00;;;2.50;;
68976;SDS011;56029;52.568;13.588;2023-03-23T08:08:24;5.40;;;2.50;;
68976;SDS011;56029;52.568;13.588;2023-03-23T08:10:50;5.97;;;2.60;;
68976;SDS011;56029;52.568;13.588;2023-03-23T08:13:16;5.03;;;2.63;;
68976;SDS011;56029;52.568;13.588;2023-03-23T08:15:42;5.35;;;2.50;;
68976;SDS011;56029;52.568;13.588;2023-03-23T08:18:08;6.10;;;2.50;;
68976;SDS011;56029;52.568;13.588;2023-03-23T08:20:34;4.93;;;2.60;;
68976;SDS011;56029;52.568;13.588;2023-03-23T08:23:01;5.30;;;2.58;;
68976;SDS011;56029;52.568;13.588;2023-03-23T08:25:27;5.85;;;2.80;;
68976;SDS011;56029;52.568;13.588;2023-03-23T08:27:56;5.35;;;2.65;;
68976;SDS011;56029;52.568;13.588;2023-03-23T08:30:22;5.40;;;3.00;;
68976;SDS011;56029;52.568;13.588;2023-03-23T08:32:50;4.97;;;2.70;;
68976;SDS011;56029;52.568;13.588;2023-03-23T08:35:16;5.65;;;2.90;;
68976;SDS011;56029;52.568;13.588;2023-03-23T08:37:43;5.60;;;3.05;;
68976;SDS011;56029;52.568;13.588;2023-03-23T08:40:10;5.45;;;2.90;;
68976;SDS011;56029;52.568;13.588;2023-03-23T08:42:37;6.63;;;2.83;;
68976;SDS011;56029;52.568;13.588;2023-03-23T08:45:04;5.68;;;2.85;;
68976;SDS011;56029;52.568;13.588;2023-03-23T08:47:33;4.93;;;2.60;;
68976;SDS011;56029;52.568;13.588;2023-03-23T08:49:58;4.95;;;2.80;;
68976;SDS011;56029;52.568;13.588;2023-03-23T08:52:24;7.53;;;4.00;;
68976;SDS011;56029;52.568;13.588;2023-03-23T08:54:50;5.73;;;3.27;;
68976;SDS011;56029;52.568;13.588;2023-03-23T08:57:15;4.63;;;2.42;;
68976;SDS011;56029;52.568;13.588;2023-03-23T08:59:41;5.07;;;2.87;;
68976;SDS011;56029;52.568;13.588;2023-03-23T09:02:10;5.35;;;2.80;;
68976;SDS011;56029;52.568;13.588;2023-03-23T09:04:39;4.78;;;2.33;;
68976;SDS011;56029;52.568;13.588;2023-03-23T09:07:08;5.57;;;2.60;;
68976;SDS011;56029;52.568;13.588;2023-03-23T09:09:36;5.47;;;2.50;;
68976;SDS011;56029;52.568;13.588;2023-03-23T09:12:03;4.20;;;2.35;;
68976;SDS011;56029;52.568;13.588;2023-03-23T09:14:28;3.83;;;2.30;;
68976;SDS011;56029;52.568;13.588;2023-03-23T09:16:54;5.20;;;2.50;;
68976;SDS011;56029;52.568;13.588;2023-03-23T09:19:19;4.77;;;2.30;;
68976;SDS011;56029;52.568;13.588;2023-03-23T09:21:46;4.45;;;2.28;;
68976;SDS011;56029;52.568;13.588;2023-03-23T09:24:11;6.13;;;2.70;;
68976;SDS011;56029;52.568;13.588;2023-03-23T09:26:37;4.10;;;2.23;;
68976;SDS011;56029;52.568;13.588;2023-03-23T09:29:02;4.70;;;2.42;;
68976;SDS011;56029;52.568;13.588;2023-03-23T09:31:28;5.03;;;2.07;;
68976;SDS011;56029;52.568;13.588;2023-03-23T09:33:54;4.78;;;2.53;;
68976;SDS011;56029;52.568;13.588;2023-03-23T09:36:22;4.00;;;2.30;;
68976;SDS011;56029;52.568;13.588;2023-03-23T09:38:50;4.40;;;2.20;;
68976;SDS011;56029;52.568;13.588;2023-03-23T09:44:02;4.93;;;2.10;;
68976;SDS011;56029;52.568;13.588;2023-03-23T09:46:48;4.72;;;2.22;;
68976;SDS011;56029;52.568;13.588;2023-03-23T09:51:53;4.37;;;2.27;;
68976;SDS011;56029;52.568;13.588;2023-03-23T09:57:02;4.63;;;2.15;;
68976;SDS011;56029;52.568;13.588;2023-03-23T09:59:30;4.70;;;2.13;;
68976;SDS011;56029;52.568;13.588;2023-03-23T10:02:14;3.60;;;2.10;;
68976;SDS011;56029;52.568;13.588;2023-03-23T10:04:46;4.20;;;2.00;;
68976;SDS011;56029;52.568;13.588;2023-03-23T10:07:17;6.28;;;2.10;;
68976;SDS011;56029;52.568;13.588;2023-03-23T10:09:48;3.72;;;2.10;;
68976;SDS011;56029;52.568;13.588;2023-03-23T10:15:04;3.60;;;1.73;;
68976;SDS011;56029;52.568;13.588;2023-03-23T10:17:33;3.97;;;2.13;;
68976;SDS011;56029;52.568;13.588;2023-03-23T10:25:44;3.15;;;1.80;;
68976;SDS011;56029;52.568;13.588;2023-03-23T10:28:19;4.40;;;1.80;;
68976;SDS011;56029;52.568;13.588;2023-03-23T10:30:51;3.37;;;1.90;;
68976;SDS011;56029;52.568;13.588;2023-03-23T10:33:23;3.17;;;1.63;;
68976;SDS011;56029;52.568;13.588;2023-03-23T10:36:13;5.63;;;2.20;;
68976;SDS011;56029;52.568;13.588;2023-03-23T10:38:42;4.03;;;1.85;;
68976;SDS011;56029;52.568;13.588;2023-03-23T10:41:18;3.47;;;1.73;;
68976;SDS011;56029;52.568;13.588;2023-03-23T10:43:45;2.57;;;1.70;;
68976;SDS011;56029;52.568;13.588;2023-03-23T10:49:01;2.47;;;1.60;;
68976;SDS011;56029;52.568;13.588;2023-03-23T10:51:34;4.03;;;2.13;;
68976;SDS011;56029;52.568;13.588;2023-03-23T10:54:05;4.38;;;1.90;;
68976;SDS011;56029;52.568;13.588;2023-03-23T10:56:35;3.50;;;1.70;;
68976;SDS011;56029;52.568;13.588;2023-03-23T10:59:19;3.22;;;1.52;;
68976;SDS011;56029;52.568;13.588;2023-03-23T11:01:53;3.78;;;1.77;;
68976;SDS011;56029;52.568;13.588;2023-03-23T11:04:21;3.10;;;1.67;;
68976;SDS011;56029;52.568;13.588;2023-03-23T11:06:49;3.05;;;1.55;;
68976;SDS011;56029;52.568;13.588;2023-03-23T11:09:39;4.35;;;1.80;;
68976;SDS011;56029;52.568;13.588;2023-03-23T11:12:17;4.37;;;1.80;;
68976;SDS011;56029;52.568;13.588;2023-03-23T11:14:44;4.85;;;1.80;;
68976;SDS011;56029;52.568;13.588;2023-03-23T11:17:23;3.22;;;1.70;;
68976;SDS011;56029;52.568;13.588;2023-03-23T11:19:50;3.30;;;1.70;;
68976;SDS011;56029;52.568;13.588;2023-03-23T11:22:19;3.35;;;1.65;;
68976;SDS011;56029;52.568;13.588;2023-03-23T11:24:55;5.33;;;1.87;;
68976;SDS011;56029;52.568;13.588;2023-03-23T11:27:24;3.15;;;1.77;;
68976;SDS011;56029;52.568;13.588;2023-03-23T11:29:53;2.83;;;1.70;;
68976;SDS011;56029;52.568;13.588;2023-03-23T11:32:28;4.50;;;2.30;;
68976;SDS011;56029;52.568;13.588;2023-03-23T11:34:58;2.60;;;1.80;;
68976;SDS011;56029;52.568;13.588;2023-03-23T11:37:30;4.37;;;1.80;;
68976;SDS011;56029;52.568;13.588;2023-03-23T11:39:59;4.65;;;1.90;;
68976;SDS011;56029;52.568;13.588;2023-03-23T11:42:34;5.40;;;1.90;;
68976;SDS011;56029;52.568;13.588;2023-03-23T11:48:12;4.68;;;1.73;;
68976;SDS011;56029;52.568;13.588;2023-03-23T11:50:52;3.70;;;1.70;;
68976;SDS011;56029;52.568;13.588;2023-03-23T11:53:24;2.85;;;1.70;;
68976;SDS011;56029;52.568;13.588;2023-03-23T11:59:00;3.95;;;1.92;;
68976;SDS011;56029;52.568;13.588;2023-03-23T12:01:31;3.67;;;1.95;;
68976;SDS011;56029;52.568;13.588;2023-03-23T12:15:10;4.57;;;1.80;;
68976;SDS011;56029;52.568;13.588;2023-03-23T12:17:56;3.27;;;1.90;;
68976;SDS011;56029;52.568;13.588;2023-03-23T12:26:00;3.97;;;1.92;;
68976;SDS011;56029;52.568;13.588;2023-03-23T12:36:59;3.97;;;1.75;;
68976;SDS011;56029;52.568;13.588;2023-03-23T12:39:52;2.60;;;1.70;;
68976;SDS011;56029;52.568;13.588;2023-03-23T12:42:38;3.88;;;2.15;;
68976;SDS011;56029;52.568;13.588;2023-03-23T12:51:00;4.57;;;1.60;;
68976;SDS011;56029;52.568;13.588;2023-03-23T12:53:05;2.55;;;1.60;;
68976;SDS011;56029;52.568;13.588;2023-03-23T12:58:12;4.07;;;1.80;;
68976;SDS011;56029;52.568;13.588;2023-03-23T13:03:33;2.67;;;1.60;;
68976;SDS011;56029;52.568;13.588;2023-03-23T13:16:45;3.67;;;2.00;;
68976;SDS011;56029;52.568;13.588;2023-03-23T13:19:20;4.88;;;2.03;;
68976;SDS011;56029;52.568;13.588;2023-03-23T13:22:09;4.40;;;2.30;;
68976;SDS011;56029;52.568;13.588;2023-03-23T13:24:44;5.20;;;2.00;;
68976;SDS011;56029;52.568;13.588;2023-03-23T13:27:22;4.43;;;2.10;;
68976;SDS011;56029;52.568;13.588;2023-03-23T13:29:50;4.65;;;1.92;;
68976;SDS011;56029;52.568;13.588;2023-03-23T13:32:16;4.80;;;1.83;;
68976;SDS011;56029;52.568;13.588;2023-03-23T13:34:43;3.67;;;1.98;;
68976;SDS011;56029;52.568;13.588;2023-03-23T13:37:19;3.60;;;1.90;;
68976;SDS011;56029;52.568;13.588;2023-03-23T13:39:52;3.05;;;1.80;;
68976;SDS011;56029;52.568;13.588;2023-03-23T13:42:25;3.92;;;1.85;;
68976;SDS011;56029;52.568;13.588;2023-03-23T13:49:49;5.30;;;1.90;;
68976;SDS011;56029;52.568;13.588;2023-03-23T13:57:55;5.05;;;1.60;;
68976;SDS011;56029;52.568;13.588;2023-03-23T14:03:15;3.93;;;1.70;;
68976;SDS011;56029;52.568;13.588;2023-03-23T14:10:58;4.82;;;1.50;;
68976;SDS011;56029;52.568;13.588;2023-03-23T14:13:33;3.70;;;1.52;;
68976;SDS011;56029;52.568;13.588;2023-03-23T14:19:15;4.78;;;1.60;;
68976;SDS011;56029;52.568;13.588;2023-03-23T14:21:51;3.90;;;1.63;;
68976;SDS011;56029;52.568;13.588;2023-03-23T14:24:23;5.00;;;1.58;;
68976;SDS011;56029;52.568;13.588;2023-03-23T14:26:52;2.53;;;1.40;;
68976;SDS011;56029;52.568;13.588;2023-03-23T14:29:26;4.13;;;1.70;;
68976;SDS011;56029;52.568;13.588;2023-03-23T14:31:53;2.72;;;1.50;;
68976;SDS011;56029;52.568;13.588;2023-03-23T14:34:21;3.95;;;1.90;;
68976;SDS011;56029;52.568;13.588;2023-03-23T14:36:50;3.55;;;1.50;;
68976;SDS011;56029;52.568;13.588;2023-03-23T14:39:19;2.47;;;1.30;;
68976;SDS011;56029;52.568;13.588;2023-03-23T14:42:03;3.30;;;1.50;;
68976;SDS011;56029;52.568;13.588;2023-03-23T14:44:32;2.58;;;1.40;;
68976;SDS011;56029;52.568;13.588;2023-03-23T14:47:09;3.72;;;1.50;;
68976;SDS011;56029;52.568;13.588;2023-03-23T14:49:52;2.80;;;1.40;;
68976;SDS011;56029;52.568;13.588;2023-03-23T14:52:21;2.15;;;1.30;;
68976;SDS011;56029;52.568;13.588;2023-03-23T14:54:48;5.07;;;1.50;;
68976;SDS011;56029;52.568;13.588;2023-03-23T14:59:52;4.00;;;1.70;;
68976;SDS011;56029;52.568;13.588;2023-03-23T15:02:30;2.38;;;1.60;;
68976;SDS011;56029;52.568;13.588;2023-03-23T15:05:01;3.35;;;1.70;;
68976;SDS011;56029;52.568;13.588;2023-03-23T15:07:31;2.70;;;1.40;;
68976;SDS011;56029;52.568;13.588;2023-03-23T15:09:59;4.30;;;1.60;;
68976;SDS011;56029;52.568;13.588;2023-03-23T15:12:27;6.00;;;2.30;;
68976;SDS011;56029;52.568;13.588;2023-03-23T15:14:56;5.97;;;1.80;;
68976;SDS011;56029;52.568;13.588;2023-03-23T15:17:27;3.55;;;1.70;;
68976;SDS011;56029;52.568;13.588;2023-03-23T15:19:56;3.73;;;1.80;;
68976;SDS011;56029;52.568;13.588;2023-03-23T15:22:27;4.03;;;2.10;;
68976;SDS011;56029;52.568;13.588;2023-03-23T15:27:52;4.15;;;1.90;;
68976;SDS011;56029;52.568;13.588;2023-03-23T15:32:49;3.77;;;2.07;;
68976;SDS011;56029;52.568;13.588;2023-03-23T15:35:18;5.30;;;1.90;;
68976;SDS011;56029;52.568;13.588;2023-03-23T15:37:58;3.08;;;1.80;;
68976;SDS011;56029;52.568;13.588;2023-03-23T15:40:26;3.47;;;1.67;;
68976;SDS011;56029;52.568;13.588;2023-03-23T15:43:07;3.33;;;1.88;;
68976;SDS011;56029;52.568;13.588;2023-03-23T15:45:55;4.27;;;2.20;;
68976;SDS011;56029;52.568;13.588;2023-03-23T15:48:30;4.30;;;1.80;;
68976;SDS011;56029;52.568;13.588;2023-03-23T15:50:57;4.13;;;1.83;;
68976;SDS011;56029;52.568;13.588;2023-03-23T15:53:31;2.83;;;1.70;;
68976;SDS011;56029;52.568;13.588;2023-03-23T15:56:00;2.92;;;1.60;;
68976;SDS011;56029;52.568;13.588;2023-03-23T15:58:27;3.33;;;1.80;;
68976;SDS011;56029;52.568;13.588;2023-03-23T16:00:54;3.28;;;1.70;;
68976;SDS011;56029;52.568;13.588;2023-03-23T16:03:22;3.65;;;1.92;;
68976;SDS011;56029;52.568;13.588;2023-03-23T16:05:51;4.40;;;1.80;;
68976;SDS011;56029;52.568;13.588;2023-03-23T16:08:18;4.05;;;1.70;;
68976;SDS011;56029;52.568;13.588;2023-03-23T16:10:43;3.37;;;1.57;;
68976;SDS011;56029;52.568;13.588;2023-03-23T16:13:09;3.73;;;1.57;;
68976;SDS011;56029;52.568;13.588;2023-03-23T16:15:35;3.35;;;1.63;;
68976;SDS011;56029;52.568;13.588;2023-03-23T16:18:01;3.05;;;1.48;;
68976;SDS011;56029;52.568;13.588;2023-03-23T16:20:27;4.40;;;1.70;;
68976;SDS011;56029;52.568;13.588;2023-03-23T16:22:54;4.47;;;1.60;;
68976;SDS011;56029;52.568;13.588;2023-03-23T16:25:20;4.90;;;1.70;;
68976;SDS011;56029;52.568;13.588;2023-03-23T16:27:46;3.55;;;1.60;;
68976;SDS011;56029;52.568;13.588;2023-03-23T16:30:22;2.72;;;1.70;;
68976;SDS011;56029;52.568;13.588;2023-03-23T16:32:50;4.30;;;1.50;;
68976;SDS011;56029;52.568;13.588;2023-03-23T16:35:15;2.60;;;1.60;;
68976;SDS011;56029;52.568;13.588;2023-03-23T16:37:46;4.20;;;1.50;;